To NAV CANADA Home Page Login to a new session Search on AWWS site Feedback and Comments Disclaimer Vers la page française équivalente Tips FAQ What's new on the site To the Forecasts and Observations / NOTAM section To "File a Flight Plan" website Publications and other links Update of the User's profile FIC Telephone Numbers My Weather Data Folder Route Weather Data Regional Weather Data Local Weather Data To the Forecasts and Observations / NOTAM section
Request Generated 02/09/2016 at 22:26:05 UTC . Weather information available at that time is displayed.

METAR/TAF

BRANDON/BRANDON MUNICIPALITY/MB    

METAR CYBR 092200Z 08007KT 070V130 15SM FEW012 OVC023 M12/M15 A3026
RMK SF1SC8 SF TR SLP284=
METAR CYBR 092100Z 10007KT 15SM FEW012 OVC026 M12/M15 A3025 RMK
SC1SC8 SC TR SLP283=
SPECI CYBR 092044Z 08008KT 15SM FEW012 OVC025 M12/M15 A3026 RMK
SC1SC7 SLP284=
METAR CYBR 092000Z 08010KT 12SM -SN SCT011 OVC026 M12/M15 A3027 RMK
SC3SC5 SLP288=

TAF CYBR 091745Z 0918/1006 08012KT P6SM SCT020 TEMPO 0918/0920 BKN020
FM092000 08012KT P6SM SCT020 BKN040 TEMPO 0920/1006 5SM -SN
BKN020 OVC040
RMK NXT FCST BY 100000Z=
Your time UTC time
Weather data provided by Environment Canada and NAV CANADA